Time;durP1;ratioP1;P1;durP2;ratioP2;P2;SDS_P1;SDS_P2;PMS_P1;PMS_P2;Temp;Humidity;BMP_temperature;BMP_pressure;BME280_temperature;BME280_humidity;BME280_pressure;Samples;Min_cycle;Max_cycle;Signal;HPM_P1;HPM_P2
2024/03/11 00:01:07;;;;;;;31.77;24.33;;;13.00;92.50;;;;;;5053979;28;20958;-56
2024/03/11 00:03:34;;;;;;;29.07;23.97;;;13.00;92.80;;;;;;5054012;28;21030;-56
2024/03/11 00:06:02;;;;;;;29.70;24.80;;;12.90;92.90;;;;;;5053833;28;21005;-56
2024/03/11 00:08:31;;;;;;;28.50;23.40;;;12.90;93.30;;;;;;5054091;28;20437;-56
2024/03/11 00:11:00;;;;;;;28.87;23.93;;;12.90;93.60;;;;;;5054160;28;20450;-56
2024/03/11 00:13:32;;;;;;;33.10;24.67;;;12.90;93.90;;;;;;5054080;28;20446;-56
2024/03/11 00:16:00;;;;;;;31.67;25.60;;;12.80;94.10;;;;;;5053852;28;20492;-56
2024/03/11 00:18:28;;;;;;;29.87;24.63;;;12.70;94.70;;;;;;5054021;28;20575;-56
2024/03/11 00:20:56;;;;;;;30.97;24.97;;;12.70;95.10;;;;;;5054070;28;20504;-56
2024/03/11 00:23:23;;;;;;;33.80;25.40;;;12.70;95.40;;;;;;5053721;28;20448;-56
2024/03/11 00:25:50;;;;;;;34.70;26.10;;;12.70;95.60;;;;;;5053759;28;20465;-56
2024/03/11 00:28:17;;;;;;;31.73;26.33;;;12.60;95.80;;;;;;5053676;28;20815;-56
2024/03/11 00:30:46;;;;;;;35.57;26.37;;;12.60;96.00;;;;;;5053805;28;20478;-56
2024/03/11 00:33:13;;;;;;;34.07;26.37;;;12.60;96.30;;;;;;5053414;28;20944;-56
2024/03/11 00:35:43;;;;;;;31.83;25.37;;;12.50;96.80;;;;;;5053651;28;20465;-56
2024/03/11 00:38:10;;;;;;;36.10;27.30;;;12.50;96.80;;;;;;5053694;28;20473;-56
2024/03/11 00:40:37;;;;;;;32.10;26.43;;;12.40;96.90;;;;;;5053677;28;20437;-56
2024/03/11 00:43:06;;;;;;;35.77;28.07;;;12.30;97.40;;;;;;5053172;28;20442;-56
2024/03/11 00:45:33;;;;;;;37.70;29.70;;;12.20;97.90;;;;;;5053259;28;20473;-56
2024/03/11 00:48:02;;;;;;;37.10;27.77;;;12.10;98.40;;;;;;5053535;28;20475;-56
2024/03/11 00:50:29;;;;;;;36.33;28.17;;;12.00;99.00;;;;;;5053513;28;20540;-56
2024/03/11 00:52:57;;;;;;;41.30;28.87;;;11.90;99.30;;;;;;5053190;28;20445;-56
2024/03/11 00:55:24;;;;;;;44.10;30.27;;;11.80;99.70;;;;;;5052784;28;20465;-56
2024/03/11 00:57:51;;;;;;;39.30;30.50;;;11.80;99.90;;;;;;5052531;28;20492;-56
2024/03/11 01:00:22;;;;;;;41.97;29.90;;;11.70;99.90;;;;;;5053389;28;20549;-56
2024/03/11 01:02:49;;;;;;;36.20;27.47;;;11.60;99.90;;;;;;5053044;28;20923;-56
2024/03/11 01:05:17;;;;;;;40.90;30.27;;;11.60;99.90;;;;;;5052784;28;20461;-57
2024/03/11 01:07:45;;;;;;;39.67;30.60;;;11.50;99.90;;;;;;5053201;28;20477;-56
2024/03/11 01:10:12;;;;;;;37.53;28.67;;;11.50;99.90;;;;;;5052814;28;20876;-56
2024/03/11 01:12:40;;;;;;;39.97;29.33;;;11.50;99.90;;;;;;5052839;28;20944;-56
2024/03/11 01:15:08;;;;;;;39.80;31.03;;;11.50;99.90;;;;;;5053095;28;20457;-56
2024/03/11 01:17:34;;;;;;;38.17;30.73;;;11.50;99.90;;;;;;5053192;28;20477;-56
2024/03/11 01:20:00;;;;;;;40.80;32.97;;;11.50;99.90;;;;;;5053096;28;20820;-56
2024/03/11 01:22:29;;;;;;;38.70;29.97;;;11.50;99.90;;;;;;5053148;28;20528;-56
2024/03/11 01:24:56;;;;;;;39.53;30.80;;;11.60;99.90;;;;;;5053000;28;20442;-56
2024/03/11 01:27:25;;;;;;;42.30;32.50;;;11.60;99.90;;;;;;5053134;28;20452;-56
2024/03/11 01:29:52;;;;;;;44.50;32.20;;;11.60;99.90;;;;;;5052759;28;20445;-56
2024/03/11 01:32:18;;;;;;;43.00;32.33;;;11.50;99.90;;;;;;5053210;28;20446;-56
2024/03/11 01:34:45;;;;;;;41.20;31.10;;;11.50;99.90;;;;;;5052915;28;20445;-56
2024/03/11 01:37:12;;;;;;;42.70;30.30;;;11.50;99.90;;;;;;5052959;28;20468;-56
2024/03/11 01:39:43;;;;;;;45.10;32.80;;;11.50;99.90;;;;;;5052958;28;20468;-56
2024/03/11 01:42:14;;;;;;;43.23;31.97;;;11.40;99.90;;;;;;5053002;28;20804;-56
2024/03/11 01:44:41;;;;;;;42.47;33.63;;;11.40;99.90;;;;;;5053083;28;20438;-56
2024/03/11 01:47:09;;;;;;;40.97;32.20;;;11.40;99.90;;;;;;5053280;28;20491;-56
2024/03/11 01:49:37;;;;;;;43.43;33.30;;;11.40;99.90;;;;;;5052477;28;20507;-56
2024/03/11 01:52:06;;;;;;;40.60;31.63;;;11.40;99.90;;;;;;5052637;28;20442;-56
2024/03/11 01:54:35;;;;;;;42.13;33.33;;;11.30;99.90;;;;;;5052707;28;20450;-56
2024/03/11 01:57:05;;;;;;;43.30;33.50;;;11.30;99.90;;;;;;5055044;28;20515;-56
2024/03/11 01:59:35;;;;;;;41.80;32.40;;;11.30;99.90;;;;;;5057689;28;20452;-56
2024/03/11 02:02:02;;;;;;;45.47;34.13;;;11.30;99.90;;;;;;5056519;28;20445;-56
2024/03/11 02:04:29;;;;;;;43.00;32.57;;;11.30;99.90;;;;;;5056571;28;20445;-56
2024/03/11 02:06:57;;;;;;;44.57;32.57;;;11.20;99.90;;;;;;5056476;28;20504;-56
2024/03/11 02:09:24;;;;;;;43.50;31.77;;;11.20;99.90;;;;;;5056953;28;20481;-56
2024/03/11 02:11:50;;;;;;;42.33;33.00;;;11.10;99.90;;;;;;5056171;28;20450;-56
2024/03/11 02:14:18;;;;;;;47.10;34.17;;;11.10;99.90;;;;;;5055975;28;20460;-56
2024/03/11 02:16:47;;;;;;;44.13;34.80;;;11.00;99.90;;;;;;5056224;28;20515;-56
2024/03/11 02:19:17;;;;;;;47.30;34.70;;;11.00;99.90;;;;;;5056198;28;20492;-56
2024/03/11 02:21:46;;;;;;;43.50;32.80;;;11.00;99.90;;;;;;5056249;28;20469;-56
2024/03/11 02:24:15;;;;;;;44.57;33.80;;;10.90;99.90;;;;;;5055993;28;20552;-56
2024/03/11 02:26:45;;;;;;;44.30;35.17;;;10.90;99.90;;;;;;5056195;28;20461;-56
2024/03/11 02:29:12;;;;;;;42.17;32.30;;;10.90;99.90;;;;;;5055709;28;20516;-56
2024/03/11 02:31:39;;;;;;;43.00;32.50;;;10.90;99.90;;;;;;5056049;28;20850;-56
2024/03/11 02:34:06;;;;;;;43.43;33.00;;;10.90;99.90;;;;;;5055912;28;20448;-56
2024/03/11 02:36:36;;;;;;;45.30;33.40;;;10.90;99.90;;;;;;5055869;28;20469;-56
2024/03/11 02:39:05;;;;;;;45.47;34.90;;;10.90;99.90;;;;;;5055767;28;20836;-56
2024/03/11 02:41:33;;;;;;;44.00;32.30;;;10.90;99.90;;;;;;5055420;28;20450;-56
2024/03/11 02:44:00;;;;;;;46.50;34.40;;;10.90;99.90;;;;;;5055398;28;20454;-56
2024/03/11 02:46:27;;;;;;;45.40;33.57;;;10.90;99.90;;;;;;5055774;28;20520;-56
2024/03/11 02:48:54;;;;;;;47.47;34.97;;;10.90;99.90;;;;;;5055663;28;20800;-56
2024/03/11 02:51:21;;;;;;;43.63;33.30;;;11.00;99.90;;;;;;5055607;28;20540;-56
2024/03/11 02:53:47;;;;;;;42.90;33.33;;;11.00;99.90;;;;;;5055516;28;20456;-56
2024/03/11 02:56:14;;;;;;;47.07;35.00;;;11.00;99.90;;;;;;5055172;28;20487;-56
2024/03/11 02:58:43;;;;;;;43.90;33.77;;;11.10;99.90;;;;;;5055382;28;20843;-56
2024/03/11 03:01:12;;;;;;;42.30;32.67;;;11.10;99.90;;;;;;5055460;28;20445;-56
2024/03/11 03:03:39;;;;;;;45.03;34.17;;;11.20;99.90;;;;;;5055405;28;20449;-56
2024/03/11 03:06:07;;;;;;;39.23;31.00;;;11.20;99.90;;;;;;5054974;28;21003;-56
2024/03/11 03:08:33;;;;;;;37.13;32.03;;;11.20;99.90;;;;;;5054669;28;20818;-56
2024/03/11 03:11:01;;;;;;;36.90;30.63;;;11.30;99.90;;;;;;5055311;28;20448;-56
2024/03/11 03:13:28;;;;;;;38.63;32.30;;;11.30;99.90;;;;;;5055140;28;20542;-56
2024/03/11 03:15:57;;;;;;;39.80;31.70;;;11.30;99.90;;;;;;5054823;28;20975;-56
2024/03/11 03:18:24;;;;;;;42.07;33.00;;;11.20;99.90;;;;;;5054965;28;20481;-56
2024/03/11 03:20:51;;;;;;;44.57;34.90;;;11.20;99.90;;;;;;5055025;28;20449;-56
2024/03/11 03:23:18;;;;;;;42.13;32.27;;;11.20;99.90;;;;;;5055238;28;20529;-56
2024/03/11 03:25:45;;;;;;;40.33;32.30;;;11.10;99.90;;;;;;5054599;28;21061;-56
2024/03/11 03:28:12;;;;;;;45.00;34.50;;;11.10;99.90;;;;;;5055012;28;20448;-56
2024/03/11 03:30:38;;;;;;;41.70;34.30;;;11.00;99.90;;;;;;5054766;28;20446;-56
2024/03/11 03:33:09;;;;;;;54.67;38.23;;;10.90;99.90;;;;;;5055707;28;20442;-56
2024/03/11 03:35:36;;;;;;;45.63;35.17;;;10.80;99.90;;;;;;5055035;28;20465;-56
2024/03/11 03:38:04;;;;;;;46.70;34.80;;;10.80;99.90;;;;;;5054872;28;20485;-56
2024/03/11 03:40:31;;;;;;;51.20;36.03;;;10.80;99.90;;;;;;5054961;28;20452;-56
2024/03/11 03:42:58;;;;;;;47.90;36.67;;;10.70;99.90;;;;;;5054797;28;20441;-56
2024/03/11 03:45:25;;;;;;;52.10;38.10;;;10.60;99.90;;;;;;5054643;28;20468;-56
2024/03/11 03:47:51;;;;;;;52.13;37.60;;;10.50;99.90;;;;;;5054571;28;20449;-55
2024/03/11 03:50:21;;;;;;;52.50;39.13;;;10.50;99.90;;;;;;5054536;28;20445;-56
2024/03/11 03:52:48;;;;;;;53.40;39.90;;;10.40;99.90;;;;;;5054426;28;20453;-56
2024/03/11 03:55:15;;;;;;;56.70;41.87;;;10.40;99.90;;;;;;5054009;28;20915;-56
2024/03/11 03:57:44;;;;;;;58.00;43.20;;;10.40;99.90;;;;;;5053901;28;20461;-56
2024/03/11 04:00:15;;;;;;;53.97;41.07;;;10.30;99.90;;;;;;5054221;28;20446;-56
2024/03/11 04:02:43;;;;;;;54.77;42.47;;;10.20;99.90;;;;;;5053996;28;20422;-56
2024/03/11 04:05:10;;;;;;;57.87;44.00;;;10.20;99.90;;;;;;5053976;28;20932;-56
2024/03/11 04:07:40;;;;;;;61.70;44.37;;;10.10;99.90;;;;;;5054153;28;20819;-56
2024/03/11 04:10:08;;;;;;;60.67;45.60;;;10.10;99.90;;;;;;5054165;28;20446;-56
2024/03/11 04:12:34;;;;;;;58.73;44.53;;;10.10;99.90;;;;;;5054230;28;20441;-56
2024/03/11 04:15:02;;;;;;;54.53;41.53;;;10.10;99.90;;;;;;5053948;28;20446;-56
2024/03/11 04:17:32;;;;;;;57.73;44.00;;;10.10;99.90;;;;;;5053965;28;20449;-56
2024/03/11 04:19:59;;;;;;;60.00;44.27;;;10.10;99.90;;;;;;5053272;28;20469;-56
2024/03/11 04:22:26;;;;;;;61.40;46.23;;;10.10;99.90;;;;;;5053679;28;20983;-56
2024/03/11 04:24:55;;;;;;;57.77;42.97;;;10.10;99.90;;;;;;5053966;28;20448;-56
2024/03/11 04:27:22;;;;;;;61.37;44.37;;;10.10;99.90;;;;;;5053808;28;20532;-56
2024/03/11 04:29:50;;;;;;;63.50;46.47;;;10.10;99.90;;;;;;5053900;28;20469;-56
2024/03/11 04:32:16;;;;;;;59.53;44.47;;;10.10;99.90;;;;;;5053926;28;20461;-56
2024/03/11 04:34:43;;;;;;;60.90;47.00;;;10.10;99.90;;;;;;5053528;28;20457;-56
2024/03/11 04:37:10;;;;;;;59.10;44.07;;;10.10;99.90;;;;;;5053635;28;20840;-56
2024/03/11 04:39:37;;;;;;;58.93;44.00;;;10.10;99.90;;;;;;5053680;28;20485;-56
2024/03/11 04:42:05;;;;;;;58.83;43.83;;;10.20;99.90;;;;;;5053328;28;20822;-56
2024/03/11 04:44:32;;;;;;;57.67;43.47;;;10.20;99.90;;;;;;5053326;28;20944;-56
2024/03/11 04:46:59;;;;;;;60.83;44.50;;;10.20;99.90;;;;;;5053389;28;20466;-56
2024/03/11 04:49:27;;;;;;;59.27;43.17;;;10.10;99.90;;;;;;5053337;28;20444;-56
2024/03/11 04:51:54;;;;;;;64.80;45.50;;;10.10;99.90;;;;;;5053523;28;20449;-56
2024/03/11 04:54:20;;;;;;;59.17;42.47;;;10.10;99.90;;;;;;5053421;28;20446;-56
2024/03/11 04:56:47;;;;;;;56.60;43.63;;;10.20;99.90;;;;;;5053093;28;20474;-56
2024/03/11 04:59:16;;;;;;;60.13;44.83;;;10.20;99.90;;;;;;5052946;28;21120;-56
2024/03/11 05:01:44;;;;;;;62.73;45.77;;;10.20;99.90;;;;;;5053061;28;20453;-56
2024/03/11 05:04:10;;;;;;;61.53;44.97;;;10.20;99.90;;;;;;5052962;28;20940;-56
2024/03/11 05:06:37;;;;;;;62.33;45.13;;;10.20;99.90;;;;;;5052944;28;20472;-56
2024/03/11 05:09:04;;;;;;;65.40;45.80;;;10.20;99.90;;;;;;5053217;28;20437;-56
2024/03/11 05:11:32;;;;;;;62.83;44.50;;;10.20;99.90;;;;;;5053138;28;20457;-56
2024/03/11 05:13:58;;;;;;;54.70;42.10;;;10.20;99.90;;;;;;5053366;28;20529;-56
2024/03/11 05:16:26;;;;;;;60.23;44.50;;;10.10;99.90;;;;;;5053214;28;20461;-56
2024/03/11 05:18:53;;;;;;;63.27;45.07;;;10.20;99.90;;;;;;5053227;28;20481;-56
2024/03/11 05:21:22;;;;;;;60.17;43.80;;;10.20;99.90;;;;;;5053710;28;20541;-56
2024/03/11 05:23:49;;;;;;;59.87;43.87;;;10.10;99.90;;;;;;5053135;28;20441;-56
2024/03/11 05:26:17;;;;;;;60.10;44.70;;;10.20;99.90;;;;;;5053105;28;20463;-56
2024/03/11 05:28:44;;;;;;;66.87;45.83;;;10.10;99.90;;;;;;5053009;28;20449;-56
2024/03/11 05:31:12;;;;;;;63.73;45.67;;;10.10;99.90;;;;;;5055941;28;20450;-56
2024/03/11 05:33:40;;;;;;;58.67;45.57;;;10.10;99.90;;;;;;5057110;28;20450;-56
2024/03/11 05:36:07;;;;;;;65.30;46.40;;;10.00;99.90;;;;;;5056690;28;20979;-56
2024/03/11 05:38:34;;;;;;;65.37;47.30;;;9.90;99.90;;;;;;5056900;28;20484;-56
2024/03/11 05:41:01;;;;;;;69.00;46.83;;;9.90;99.90;;;;;;5056726;28;20950;-56
2024/03/11 05:43:28;;;;;;;60.47;46.20;;;9.90;99.90;;;;;;5056881;28;20453;-56
2024/03/11 05:45:55;;;;;;;64.23;48.03;;;9.90;99.90;;;;;;5056803;28;20807;-56
2024/03/11 05:48:22;;;;;;;72.60;48.83;;;9.90;99.90;;;;;;5056718;28;20528;-56
2024/03/11 05:50:51;;;;;;;62.20;47.83;;;9.80;99.90;;;;;;5056753;28;20448;-56
2024/03/11 05:53:21;;;;;;;69.43;47.93;;;9.80;99.90;;;;;;5056470;28;21018;-56
2024/03/11 05:55:48;;;;;;;63.03;46.60;;;9.80;99.90;;;;;;5056762;28;20485;-56
2024/03/11 05:58:15;;;;;;;70.07;48.80;;;9.80;99.90;;;;;;5056352;28;20425;-56
2024/03/11 06:00:46;;;;;;;68.10;46.50;;;9.80;99.90;;;;;;5056500;28;20481;-56
2024/03/11 06:03:13;;;;;;;60.97;46.77;;;9.80;99.90;;;;;;5056563;28;20458;-56
2024/03/11 06:05:39;;;;;;;66.80;47.53;;;9.70;99.90;;;;;;5056204;28;21005;-56
2024/03/11 06:08:08;;;;;;;63.50;46.80;;;9.70;99.90;;;;;;5055995;28;20532;-56
2024/03/11 06:10:35;;;;;;;67.53;49.30;;;9.80;99.90;;;;;;5056341;28;20441;-56
2024/03/11 06:13:02;;;;;;;66.83;47.57;;;9.80;99.90;;;;;;5056374;28;20455;-56
2024/03/11 06:15:29;;;;;;;68.43;48.27;;;9.80;99.90;;;;;;5056126;28;20519;-56
2024/03/11 06:17:56;;;;;;;59.47;46.47;;;9.80;99.90;;;;;;5056314;28;20547;-56
2024/03/11 06:20:23;;;;;;;68.83;48.00;;;9.80;99.90;;;;;;5055807;28;21097;-56
2024/03/11 06:22:50;;;;;;;64.27;46.73;;;9.80;99.90;;;;;;5055870;28;20940;-56
2024/03/11 06:25:20;;;;;;;61.20;47.67;;;9.80;99.90;;;;;;5056173;28;20869;-56
2024/03/11 06:27:49;;;;;;;61.57;46.00;;;9.90;99.90;;;;;;5055715;28;20454;-56
2024/03/11 06:30:17;;;;;;;63.63;47.00;;;9.90;99.90;;;;;;5055922;28;20445;-56
2024/03/11 06:32:45;;;;;;;63.80;46.20;;;9.90;99.90;;;;;;5056038;28;20456;-56
2024/03/11 06:35:13;;;;;;;62.50;46.10;;;9.90;99.90;;;;;;5055592;28;20450;-56
2024/03/11 06:37:43;;;;;;;56.57;44.00;;;9.90;99.90;;;;;;5055941;28;20491;-56
2024/03/11 06:40:11;;;;;;;53.50;43.80;;;10.00;99.90;;;;;;5055896;28;20535;-56
2024/03/11 06:42:40;;;;;;;58.67;44.90;;;10.00;99.90;;;;;;5054789;28;20511;-56
2024/03/11 06:45:07;;;;;;;56.27;44.90;;;10.00;99.90;;;;;;5055693;28;20445;-57
2024/03/11 06:47:34;;;;;;;53.40;41.33;;;10.00;99.90;;;;;;5055327;28;20450;-56
2024/03/11 06:50:01;;;;;;;53.63;43.37;;;10.00;99.90;;;;;;5055562;28;20448;-56
2024/03/11 06:52:28;;;;;;;55.30;43.20;;;10.00;99.90;;;;;;5055534;28;20438;-56
2024/03/11 06:54:55;;;;;;;58.53;44.80;;;10.00;99.90;;;;;;5055258;28;20448;-56
2024/03/11 06:57:22;;;;;;;56.90;43.70;;;10.00;99.90;;;;;;5055247;28;20457;-56
2024/03/11 06:59:50;;;;;;;58.00;44.30;;;10.00;99.90;;;;;;5055113;28;20487;-56
2024/03/11 07:02:20;;;;;;;52.30;41.37;;;10.00;99.90;;;;;;5055545;28;20533;-56
2024/03/11 07:04:47;;;;;;;57.00;43.70;;;10.00;99.90;;;;;;5055470;28;20452;-56
2024/03/11 07:07:15;;;;;;;55.20;41.50;;;10.00;99.90;;;;;;5055191;28;20466;-56
2024/03/11 07:09:41;;;;;;;53.00;41.40;;;10.00;99.90;;;;;;5055090;28;21001;-56
2024/03/11 07:12:08;;;;;;;54.77;42.03;;;10.00;99.90;;;;;;5055316;28;20449;-56
2024/03/11 07:14:37;;;;;;;51.70;42.30;;;10.00;99.90;;;;;;5055450;28;20445;-56
2024/03/11 07:17:07;;;;;;;54.00;41.60;;;10.00;99.90;;;;;;5055238;28;20473;-56
2024/03/11 07:19:38;;;;;;;54.03;41.73;;;10.00;99.90;;;;;;5054818;28;20477;-56
2024/03/11 07:22:07;;;;;;;56.73;43.00;;;10.00;99.90;;;;;;5055227;28;20430;-56
2024/03/11 07:24:34;;;;;;;59.33;43.13;;;10.10;99.90;;;;;;5055161;28;20512;-56
2024/03/11 07:27:01;;;;;;;57.80;43.03;;;10.10;99.90;;;;;;5054648;28;20461;-56
2024/03/11 07:29:27;;;;;;;56.97;43.57;;;10.10;99.90;;;;;;5054839;28;20444;-56
2024/03/11 07:31:55;;;;;;;55.73;44.60;;;10.20;99.90;;;;;;5054934;28;20442;-56
2024/03/11 07:34:23;;;;;;;58.17;44.20;;;10.10;99.90;;;;;;5054899;28;20449;-56
2024/03/11 07:36:55;;;;;;;60.83;45.80;;;10.10;99.90;;;;;;5054777;28;20474;-57
2024/03/11 07:39:24;;;;;;;55.10;44.30;;;10.10;99.90;;;;;;5054722;28;20466;-56
2024/03/11 07:41:51;;;;;;;52.00;42.80;;;10.10;99.90;;;;;;5054471;28;20532;-56
2024/03/11 07:44:18;;;;;;;54.80;41.53;;;10.10;99.90;;;;;;5054698;28;20544;-56
2024/03/11 07:46:46;;;;;;;55.87;42.47;;;10.10;99.90;;;;;;5054535;28;20470;-56
2024/03/11 07:49:13;;;;;;;56.70;44.07;;;10.10;99.90;;;;;;5054460;28;20442;-56
2024/03/11 07:51:41;;;;;;;58.03;44.70;;;10.10;99.90;;;;;;5054464;28;20445;-56
2024/03/11 07:54:09;;;;;;;65.90;46.30;;;10.10;99.90;;;;;;5054522;28;20499;-56
2024/03/11 07:56:36;;;;;;;59.47;46.77;;;10.20;99.90;;;;;;5053963;28;20484;-56
2024/03/11 07:59:04;;;;;;;66.03;47.57;;;10.20;99.90;;;;;;5054269;28;20836;-56
2024/03/11 08:01:31;;;;;;;58.70;44.83;;;10.20;99.90;;;;;;5054424;28;20450;-56
2024/03/11 08:03:58;;;;;;;66.23;48.67;;;10.10;99.90;;;;;;5054290;28;20900;-57
2024/03/11 08:06:25;;;;;;;58.80;45.67;;;10.20;99.90;;;;;;5054182;28;20539;-57
2024/03/11 08:08:53;;;;;;;60.00;45.57;;;10.10;99.90;;;;;;5053733;28;20446;-57
2024/03/11 08:11:20;;;;;;;59.90;44.47;;;10.20;99.90;;;;;;5054124;28;20555;-57
2024/03/11 08:13:47;;;;;;;56.60;42.87;;;10.20;99.90;;;;;;5054167;28;20446;-57
2024/03/11 08:16:14;;;;;;;56.00;44.87;;;10.30;99.90;;;;;;5053967;28;20477;-57
2024/03/11 08:18:42;;;;;;;52.63;41.00;;;10.30;99.90;;;;;;5054128;28;20441;-57
2024/03/11 08:21:10;;;;;;;55.70;40.17;;;10.40;99.90;;;;;;5053664;28;20898;-57
2024/03/11 08:23:38;;;;;;;51.17;40.50;;;10.40;99.90;;;;;;5053944;28;20499;-57
2024/03/11 08:26:07;;;;;;;55.50;41.57;;;10.40;99.90;;;;;;5054705;28;20849;-56
2024/03/11 08:28:38;;;;;;;47.83;39.63;;;10.50;99.90;;;;;;5053973;28;20495;-57
2024/03/11 08:31:07;;;;;;;49.10;38.80;;;10.40;99.90;;;;;;5053714;28;20426;-56
2024/03/11 08:33:34;;;;;;;56.67;40.30;;;10.40;99.90;;;;;;5053901;28;20453;-56
2024/03/11 08:36:03;;;;;;;51.43;40.13;;;10.40;99.90;;;;;;5053777;28;20491;-56
2024/03/11 08:38:30;;;;;;;48.40;39.73;;;10.40;99.90;;;;;;5053798;28;20473;-56
2024/03/11 08:40:58;;;;;;;49.60;39.40;;;10.30;99.90;;;;;;5053465;28;20569;-57
2024/03/11 08:43:27;;;;;;;46.37;37.57;;;10.40;99.90;;;;;;5053711;28;20520;-57
2024/03/11 08:45:56;;;;;;;44.80;36.67;;;10.40;99.90;;;;;;5053542;28;20481;-57
2024/03/11 08:48:23;;;;;;;46.93;38.47;;;10.40;99.90;;;;;;5053595;28;20449;-57
2024/03/11 08:50:49;;;;;;;49.63;38.07;;;10.40;99.90;;;;;;5053510;28;20541;-57
2024/03/11 08:53:16;;;;;;;47.20;38.90;;;10.40;99.90;;;;;;5053547;28;20441;-57
2024/03/11 08:55:43;;;;;;;47.43;37.30;;;10.40;99.90;;;;;;5053305;28;20465;-57
2024/03/11 08:58:12;;;;;;;48.13;37.23;;;10.50;99.90;;;;;;5053414;28;20429;-57
2024/03/11 09:00:40;;;;;;;50.57;36.40;;;10.50;99.90;;;;;;5053629;28;20546;-57
2024/03/11 09:03:07;;;;;;;49.50;38.20;;;10.50;99.90;;;;;;5053183;28;20830;-57
2024/03/11 09:05:34;;;;;;;55.73;42.90;;;10.50;99.90;;;;;;5052852;28;20491;-57
2024/03/11 09:08:03;;;;;;;59.70;43.53;;;10.50;99.90;;;;;;5053079;28;20456;-57
2024/03/11 09:10:30;;;;;;;55.70;43.30;;;10.50;99.90;;;;;;5053332;28;20532;-57
2024/03/11 09:12:58;;;;;;;55.13;42.67;;;10.50;99.90;;;;;;5053154;28;20516;-57
2024/03/11 09:15:25;;;;;;;56.60;45.20;;;10.50;99.90;;;;;;5053154;28;20531;-57
2024/03/11 09:17:54;;;;;;;55.40;42.20;;;10.50;99.90;;;;;;5053196;28;20463;-57
2024/03/11 09:20:22;;;;;;;57.67;44.37;;;10.50;99.90;;;;;;5053252;28;20574;-57
2024/03/11 09:22:50;;;;;;;52.90;41.40;;;10.50;99.90;;;;;;5053404;28;20862;-57
2024/03/11 09:25:22;;;;;;;55.43;41.37;;;10.50;99.90;;;;;;5053151;28;20452;-57
2024/03/11 09:27:52;;;;;;;49.53;39.27;;;10.50;99.90;;;;;;5053029;28;20904;-57
2024/03/11 09:30:19;;;;;;;50.37;41.30;;;10.60;99.90;;;;;;5053145;28;20524;-57
2024/03/11 09:32:47;;;;;;;58.00;42.47;;;10.60;99.90;;;;;;5053032;28;20442;-57
2024/03/11 09:35:17;;;;;;;48.33;39.53;;;10.60;99.90;;;;;;5053116;28;20449;-57
2024/03/11 09:37:51;;;;;;;47.17;37.00;;;10.50;99.90;;;;;;5052837;28;20826;-57
2024/03/11 09:40:19;;;;;;;50.80;39.23;;;10.50;99.90;;;;;;5053101;28;20501;-57
2024/03/11 09:42:47;;;;;;;49.07;37.50;;;10.60;99.90;;;;;;5053173;28;20450;-57
2024/03/11 09:45:17;;;;;;;45.23;37.07;;;10.60;99.90;;;;;;5053198;28;20456;-57
2024/03/11 09:47:51;;;;;;;49.50;38.20;;;10.60;99.90;;;;;;5053023;28;20449;-57
2024/03/11 09:50:26;;;;;;;47.00;36.27;;;10.60;99.90;;;;;;5053054;28;20788;-57
2024/03/11 09:52:56;;;;;;;46.53;37.00;;;10.60;99.90;;;;;;5053123;28;20425;-57
2024/03/11 09:55:24;;;;;;;48.20;36.50;;;10.60;99.90;;;;;;5053231;28;20476;-56
2024/03/11 09:57:51;;;;;;;46.33;36.27;;;10.50;99.90;;;;;;5052436;28;20911;-56
2024/03/11 10:00:24;;;;;;;49.77;38.10;;;10.50;99.90;;;;;;5052413;28;20535;-56
2024/03/11 10:02:58;;;;;;;52.67;38.47;;;10.50;99.90;;;;;;5052842;28;20496;-56
2024/03/11 10:05:30;;;;;;;48.77;37.90;;;10.50;99.90;;;;;;5052323;28;20468;-57
2024/03/11 10:07:58;;;;;;;49.57;37.93;;;10.50;99.90;;;;;;5052470;28;20476;-57
2024/03/11 10:10:25;;;;;;;45.10;36.67;;;10.50;99.90;;;;;;5052239;28;20441;-56
2024/03/11 10:12:53;;;;;;;49.00;37.07;;;10.50;99.90;;;;;;5052643;28;20445;-56
2024/03/11 10:15:27;;;;;;;47.80;36.30;;;10.40;99.90;;;;;;5052311;28;20468;-56
2024/03/11 10:17:55;;;;;;;54.13;39.93;;;10.50;99.90;;;;;;5055014;28;20449;-56
2024/03/11 10:20:22;;;;;;;51.07;38.93;;;10.40;99.90;;;;;;5055884;28;21017;-56
2024/03/11 10:22:50;;;;;;;49.43;37.80;;;10.50;99.90;;;;;;5056163;28;20533;-56
2024/03/11 10:25:25;;;;;;;49.50;38.40;;;10.50;99.90;;;;;;5055852;28;20937;-57
2024/03/11 10:27:55;;;;;;;56.20;40.70;;;10.50;99.90;;;;;;5057045;28;20426;-57
2024/03/11 10:30:25;;;;;;;48.67;37.53;;;10.50;99.90;;;;;;5055828;28;20955;-57
2024/03/11 10:32:55;;;;;;;51.63;37.10;;;10.60;99.90;;;;;;5055733;28;20449;-57
2024/03/11 10:35:22;;;;;;;47.63;36.87;;;10.60;99.90;;;;;;5056232;28;20860;-57
2024/03/11 10:37:51;;;;;;;47.70;37.37;;;10.70;99.90;;;;;;5056004;28;20548;-57
2024/03/11 10:40:19;;;;;;;48.10;37.83;;;10.70;99.90;;;;;;5056254;28;20476;-57
2024/03/11 10:42:53;;;;;;;49.47;36.77;;;10.70;99.90;;;;;;5055731;28;20442;-57
2024/03/11 10:45:30;;;;;;;47.07;35.27;;;10.70;99.90;;;;;;5055749;28;20476;-57
2024/03/11 10:48:00;;;;;;;47.57;34.80;;;10.70;99.90;;;;;;5056616;28;20488;-56
2024/03/11 10:50:29;;;;;;;43.37;34.30;;;10.60;99.90;;;;;;5055721;28;20426;-56
2024/03/11 10:52:58;;;;;;;48.67;36.53;;;10.50;99.90;;;;;;5055382;28;20433;-57
2024/03/11 10:55:32;;;;;;;52.93;39.93;;;10.60;99.90;;;;;;5055591;28;20470;-56
2024/03/11 10:58:01;;;;;;;51.13;40.50;;;10.60;99.90;;;;;;5055800;28;20869;-56
2024/03/11 11:00:33;;;;;;;49.63;39.47;;;10.70;99.90;;;;;;5055404;28;20489;-56
2024/03/11 11:03:07;;;;;;;53.07;39.70;;;10.70;99.90;;;;;;5055658;28;20499;-56
2024/03/11 11:05:42;;;;;;;52.00;40.23;;;10.80;99.90;;;;;;5055469;28;20523;-56
2024/03/11 11:08:12;;;;;;;48.00;36.80;;;10.90;99.90;;;;;;5055104;28;20944;-56
2024/03/11 11:10:40;;;;;;;49.43;36.50;;;10.90;99.90;;;;;;5055193;28;20817;-56
2024/03/11 11:13:08;;;;;;;50.03;36.23;;;11.00;99.90;;;;;;5054889;28;20818;-56
2024/03/11 11:15:36;;;;;;;44.63;35.27;;;11.10;99.90;;;;;;5054903;28;20991;-56
2024/03/11 11:18:06;;;;;;;45.63;35.17;;;11.20;99.90;;;;;;5054954;28;20955;-56
2024/03/11 11:20:37;;;;;;;44.87;35.67;;;11.20;99.90;;;;;;5055200;28;20465;-56
2024/03/11 11:23:10;;;;;;;45.03;34.00;;;11.30;99.90;;;;;;5055181;28;20430;-56
2024/03/11 11:25:44;;;;;;;40.57;31.30;;;11.30;99.90;;;;;;5054750;28;20991;-57
2024/03/11 11:28:13;;;;;;;39.03;30.27;;;11.40;99.90;;;;;;5054722;28;20436;-56
2024/03/11 11:30:40;;;;;;;43.17;34.10;;;11.40;99.90;;;;;;5054517;28;20441;-56
2024/03/11 11:33:10;;;;;;;40.97;31.20;;;11.40;99.90;;;;;;5054598;28;20452;-56
2024/03/11 11:35:37;;;;;;;40.40;32.27;;;11.40;99.90;;;;;;5054477;28;21061;-57
2024/03/11 11:38:34;;;;;;;36.83;28.47;;;11.40;99.90;;;;;;5054745;28;20442;-56
2024/03/11 11:41:23;;;;;;;36.77;29.33;;;11.50;99.90;;;;;;4993110;28;20938;-56
2024/03/11 11:43:54;;;;;;;36.60;27.50;;;11.50;99.90;;;;;;5049864;28;20460;-56
2024/03/11 11:46:43;;;;;;;30.40;20.97;;;11.50;99.90;;;;;;5054618;28;20465;-57
2024/03/11 11:49:17;;;;;;;23.10;16.50;;;11.50;99.90;;;;;;5054577;28;20456;-56
2024/03/11 11:51:45;;;;;;;14.70;11.77;;;11.50;99.90;;;;;;5054457;28;20453;-56
2024/03/11 11:54:25;;;;;;;9.30;7.73;;;11.50;99.90;;;;;;5054505;28;20445;-56
2024/03/11 11:57:04;;;;;;;5.93;5.33;;;11.50;99.90;;;;;;5054121;28;20900;-57
2024/03/11 11:59:31;;;;;;;4.10;3.63;;;11.60;99.90;;;;;;5054445;28;20487;-57
2024/03/11 12:02:00;;;;;;;3.10;2.90;;;11.50;99.90;;;;;;5054029;28;20497;-57
2024/03/11 12:04:27;;;;;;;5.37;4.87;;;11.60;99.90;;;;;;5054274;28;20446;-57
2024/03/11 12:06:54;;;;;;;3.20;2.90;;;11.60;99.90;;;;;;5054237;28;20491;-57
2024/03/11 12:09:23;;;;;;;3.23;2.80;;;11.60;99.90;;;;;;5053814;28;20528;-56
2024/03/11 12:11:50;;;;;;;3.67;3.37;;;11.60;99.90;;;;;;5053803;28;20452;-56
2024/03/11 12:14:19;;;;;;;3.60;3.10;;;11.60;99.90;;;;;;5054143;28;20448;-56
2024/03/11 12:16:47;;;;;;;4.73;3.30;;;11.60;99.90;;;;;;5054023;28;20492;-56
2024/03/11 12:19:13;;;;;;;5.07;3.70;;;11.70;99.90;;;;;;5053985;28;20449;-56
2024/03/11 12:21:41;;;;;;;4.00;3.10;;;11.60;99.90;;;;;;5053927;28;20487;-56
2024/03/11 12:24:12;;;;;;;5.27;4.70;;;11.70;99.90;;;;;;5054482;28;20452;-56
2024/03/11 12:26:41;;;;;;;5.20;3.50;;;11.60;99.90;;;;;;5053865;28;20472;-56
2024/03/11 12:29:13;;;;;;;4.67;4.27;;;11.70;99.90;;;;;;5053891;28;20559;-56
2024/03/11 12:31:41;;;;;;;5.00;4.50;;;11.60;99.90;;;;;;5053759;28;20765;-56
2024/03/11 12:34:10;;;;;;;5.00;4.33;;;11.60;99.90;;;;;;5053647;28;20496;-56